createdAt,value
2018-02-23T00:01:54.136Z,56.93
2018-02-23T00:04:21.978Z,50.40
2018-02-23T00:06:50.074Z,49.93
2018-02-23T00:09:18.842Z,64.20
2018-02-23T00:11:47.398Z,60.37
2018-02-23T00:14:15.937Z,53.63
2018-02-23T00:16:43.767Z,52.67
2018-02-23T00:19:11.471Z,48.40
2018-02-23T00:21:39.256Z,53.97
2018-02-23T00:24:07.023Z,46.03
2018-02-23T00:26:34.794Z,48.40
2018-02-23T00:29:03.335Z,55.97
2018-02-23T00:31:31.052Z,53.10
2018-02-23T00:33:58.786Z,50.43
2018-02-23T00:36:28.125Z,45.80
2018-02-23T00:38:55.807Z,56.23
2018-02-23T00:41:24.346Z,54.07
2018-02-23T00:43:52.056Z,55.40
2018-02-23T00:46:19.845Z,53.87
2018-02-23T00:48:47.796Z,51.37
2018-02-23T00:51:15.562Z,54.07
2018-02-23T00:53:44.055Z,52.23
2018-02-23T00:56:11.763Z,52.77
2018-02-23T00:58:39.504Z,45.03
2018-02-23T01:01:07.294Z,56.57
2018-02-23T01:03:35.855Z,46.47
2018-02-23T01:06:03.640Z,43.57
2018-02-23T01:08:31.451Z,46.90
2018-02-23T01:10:59.182Z,45.73
2018-02-23T01:13:26.895Z,51.60
2018-02-23T01:15:56.412Z,50.13
2018-02-23T01:18:30.661Z,47.60
2018-02-23T01:20:58.388Z,48.77
2018-02-23T01:23:26.356Z,46.00
2018-02-23T01:25:56.698Z,45.23
2018-02-23T01:28:27.169Z,50.93
2018-02-23T01:30:59.141Z,56.43
2018-02-23T01:33:28.831Z,56.03
2018-02-23T01:35:57.763Z,53.20
2018-02-23T01:38:34.142Z,47.60
2018-02-23T01:41:04.957Z,51.03
2018-02-23T01:43:50.678Z,48.70
2018-02-23T01:46:22.141Z,48.60
2018-02-23T01:48:50.710Z,48.27
2018-02-23T01:51:22.013Z,40.57
2018-02-23T01:53:53.938Z,45.47
2018-02-23T01:56:22.992Z,44.83
2018-02-23T01:58:56.590Z,43.53
2018-02-23T02:01:31.417Z,39.67
2018-02-23T02:04:02.027Z,42.87
2018-02-23T02:06:43.198Z,42.83
2018-02-23T02:13:27.925Z,51.87
2018-02-23T02:16:08.187Z,43.83
2018-02-23T02:18:53.735Z,53.30
2018-02-23T02:24:41.575Z,45.00
2018-02-23T02:27:13.791Z,41.13
2018-02-23T05:14:07.991Z,49.57
2018-02-23T05:33:30.828Z,35.10
2018-02-23T05:59:59.562Z,45.67
2018-02-23T06:10:07.154Z,36.17
2018-02-23T06:12:46.600Z,44.93
2018-02-23T06:31:54.364Z,42.13
2018-02-23T07:45:07.352Z,48.43
2018-02-23T07:51:15.257Z,61.83
2018-02-23T07:57:22.341Z,69.03
2018-02-23T08:12:12.407Z,64.50
2018-02-23T08:22:44.555Z,51.90
2018-02-23T08:25:24.121Z,39.50
2018-02-23T08:27:56.631Z,44.53
2018-02-23T08:31:06.126Z,44.03
2018-02-23T08:33:45.070Z,71.50
2018-02-23T08:36:15.966Z,57.67
2018-02-23T08:38:44.194Z,67.63
2018-02-23T08:41:16.898Z,53.87
2018-02-23T08:43:46.160Z,50.23
2018-02-23T08:46:17.701Z,59.60
2018-02-23T08:48:47.252Z,49.40
2018-02-23T08:51:16.341Z,65.07
2018-02-23T08:53:45.673Z,64.67
2018-02-23T08:56:13.693Z,70.43
2018-02-23T08:58:42.743Z,55.97
2018-02-23T09:01:11.221Z,57.37
2018-02-23T09:03:39.505Z,57.80
2018-02-23T09:06:08.418Z,69.30
2018-02-23T09:08:37.320Z,56.27
2018-02-23T09:11:05.559Z,57.97
2018-02-23T09:13:34.140Z,63.37
2018-02-23T09:16:03.035Z,59.83
2018-02-23T09:18:31.108Z,59.30
2018-02-23T09:21:00.590Z,52.00
2018-02-23T09:23:29.601Z,57.67
2018-02-23T09:25:58.037Z,62.90
2018-02-23T09:28:25.762Z,53.13
2018-02-23T09:30:53.536Z,54.63
2018-02-23T09:33:21.449Z,52.37
2018-02-23T09:35:50.062Z,57.13
2018-02-23T09:38:19.161Z,59.63
2018-02-23T09:40:47.044Z,57.17
2018-02-23T09:43:15.198Z,59.57
2018-02-23T09:45:43.278Z,63.40
2018-02-23T09:48:12.367Z,59.57
2018-02-23T09:50:40.652Z,49.13
2018-02-23T09:53:09.547Z,44.00
2018-02-23T09:55:37.556Z,61.33
2018-02-23T09:58:06.090Z,51.30
2018-02-23T10:00:34.767Z,59.43
2018-02-23T10:03:02.764Z,52.77
2018-02-23T10:05:31.401Z,59.93
2018-02-23T10:07:59.590Z,51.80
2018-02-23T10:10:28.396Z,56.33
2018-02-23T10:12:56.342Z,51.77
2018-02-23T10:15:24.363Z,43.50
2018-02-23T10:17:52.262Z,43.90
2018-02-23T10:20:20.077Z,47.30
2018-02-23T10:22:47.780Z,39.73
2018-02-23T10:25:15.662Z,37.77
2018-02-23T10:27:43.848Z,33.57
2018-02-23T10:30:11.945Z,35.77
2018-02-23T10:32:40.335Z,29.63
2018-02-23T10:35:08.280Z,46.73
2018-02-23T10:37:36.878Z,31.13
2018-02-23T10:40:05.759Z,29.10
2018-02-23T10:42:33.844Z,30.33
2018-02-23T10:45:01.993Z,28.93
2018-02-23T10:47:29.861Z,39.23
2018-02-23T10:49:57.730Z,31.10
2018-02-23T10:52:25.893Z,24.47
2018-02-23T10:54:54.611Z,23.67
2018-02-23T10:57:23.007Z,28.40
2018-02-23T10:59:51.981Z,33.67
2018-02-23T11:02:19.952Z,25.77
2018-02-23T11:04:48.053Z,23.33
2018-02-23T11:07:16.202Z,22.50
2018-02-23T11:09:44.096Z,25.53
2018-02-23T11:12:13.471Z,26.57
2018-02-23T11:14:41.603Z,27.33
2018-02-23T11:17:09.791Z,24.37
2018-02-23T11:19:37.786Z,38.23
2018-02-23T11:22:05.652Z,29.53
2018-02-23T11:24:33.543Z,33.30
2018-02-23T11:27:02.083Z,20.37
2018-02-23T11:29:29.827Z,23.13
2018-02-23T11:31:58.914Z,19.90
2018-02-23T11:34:26.935Z,20.30
2018-02-23T11:36:54.926Z,18.67
2018-02-23T11:39:23.545Z,26.80
2018-02-23T11:41:51.558Z,17.47
2018-02-23T11:44:20.850Z,15.13
2018-02-23T11:46:48.636Z,24.53
2018-02-23T11:49:16.700Z,27.60
2018-02-23T11:51:44.626Z,17.90
2018-02-23T11:54:12.819Z,21.77
2018-02-23T11:56:41.630Z,16.33
2018-02-23T11:59:09.577Z,18.90
2018-02-23T12:01:37.750Z,12.37
2018-02-23T12:04:08.660Z,23.70
2018-02-23T12:06:36.989Z,27.50
2018-02-23T12:09:05.273Z,23.00
2018-02-23T12:11:33.338Z,29.33
2018-02-23T12:14:01.310Z,24.03
2018-02-23T12:16:29.278Z,16.35
2018-02-23T12:18:57.346Z,21.08
2018-02-23T12:21:25.357Z,22.40
2018-02-23T12:23:53.547Z,30.20
2018-02-23T12:26:21.401Z,25.07
2018-02-23T12:28:49.332Z,22.43
2018-02-23T12:31:17.087Z,22.63
2018-02-23T12:33:44.974Z,20.30
2018-02-23T12:36:13.187Z,31.13
2018-02-23T12:38:40.954Z,22.30
2018-02-23T12:41:08.773Z,17.83
2018-02-23T12:43:36.613Z,21.60
2018-02-23T12:46:04.478Z,17.00
2018-02-23T12:48:32.262Z,19.67
2018-02-23T12:50:59.963Z,18.33
2018-02-23T12:53:27.721Z,20.20
2018-02-23T12:55:55.422Z,15.73
2018-02-23T12:58:23.162Z,8.13
2018-02-23T13:00:50.995Z,14.13
2018-02-23T13:03:18.782Z,11.07
2018-02-23T13:05:46.946Z,12.20
2018-02-23T13:08:14.839Z,11.77
2018-02-23T13:10:42.793Z,9.00
2018-02-23T13:13:10.985Z,13.47
2018-02-23T13:15:39.058Z,13.00
2018-02-23T13:18:06.775Z,12.83
2018-02-23T13:20:34.560Z,15.70
2018-02-23T13:23:02.356Z,17.27
2018-02-23T13:25:30.170Z,9.40
2018-02-23T13:28:03.340Z,9.60
2018-02-23T13:30:31.935Z,8.70
2018-02-23T13:32:59.954Z,14.30
2018-02-23T13:35:28.877Z,12.17
2018-02-23T13:37:56.774Z,12.17
2018-02-23T13:40:24.683Z,11.60
2018-02-23T13:42:52.719Z,11.63
2018-02-23T13:45:20.832Z,10.70
2018-02-23T13:47:49.062Z,10.23
2018-02-23T13:50:17.804Z,17.70
2018-02-23T13:52:45.928Z,12.30
2018-02-23T13:55:14.006Z,16.30
2018-02-23T13:57:42.069Z,16.40
2018-02-23T14:00:10.862Z,13.33
2018-02-23T14:02:39.882Z,12.90
2018-02-23T14:05:07.778Z,15.40
2018-02-23T14:07:35.788Z,13.90
2018-02-23T14:10:04.433Z,12.50
2018-02-23T14:12:32.524Z,10.50
2018-02-23T14:15:00.454Z,13.03
2018-02-23T14:17:28.527Z,12.00
2018-02-23T14:19:56.905Z,14.00
2018-02-23T14:22:24.952Z,14.80
2018-02-23T14:24:53.053Z,13.80
2018-02-23T14:27:21.540Z,10.53
2018-02-23T14:29:49.563Z,14.83
2018-02-23T14:32:17.591Z,13.10
2018-02-23T14:34:45.444Z,11.33
2018-02-23T14:37:13.779Z,10.43
2018-02-23T14:39:41.790Z,11.83
2018-02-23T14:42:09.781Z,12.70
2018-02-23T14:44:38.100Z,13.67
2018-02-23T14:47:06.130Z,11.27
2018-02-23T14:49:34.249Z,7.20
2018-02-23T14:52:02.427Z,7.73
2018-02-23T14:54:30.838Z,12.40
2018-02-23T14:56:59.220Z,12.57
2018-02-23T14:59:27.202Z,9.87
2018-02-23T15:01:56.034Z,14.27
2018-02-23T15:04:24.029Z,25.10
2018-02-23T15:06:52.791Z,20.97
2018-02-23T15:09:20.741Z,17.50
2018-02-23T15:11:49.754Z,16.97
2018-02-23T15:14:17.664Z,24.60
2018-02-23T15:16:45.637Z,17.60
2018-02-23T15:19:14.511Z,21.97
2018-02-23T15:21:42.661Z,23.83
2018-02-23T15:24:10.782Z,24.37
2018-02-23T15:26:38.649Z,20.03
2018-02-23T15:29:06.756Z,17.90
2018-02-23T15:31:46.596Z,27.87
2018-02-23T15:34:14.630Z,18.30
2018-02-23T15:36:42.576Z,22.83
2018-02-23T15:39:10.373Z,15.97
2018-02-23T15:41:38.491Z,18.63
2018-02-23T15:44:07.306Z,16.60
2018-02-23T15:46:35.349Z,17.17
2018-02-23T15:49:08.967Z,18.07
2018-02-23T15:51:52.653Z,25.03
2018-02-23T15:54:20.674Z,16.40
2018-02-23T15:56:48.779Z,22.83
2018-02-23T15:59:17.254Z,30.70
2018-02-23T16:01:45.312Z,22.50
2018-02-23T16:04:13.442Z,26.30
2018-02-23T16:06:41.707Z,17.20
2018-02-23T16:09:09.842Z,24.20
2018-02-23T16:11:38.238Z,23.13
2018-02-23T16:14:07.026Z,26.10
2018-02-23T16:16:36.077Z,32.00
2018-02-23T16:19:04.248Z,28.77
2018-02-23T16:21:32.529Z,27.33
2018-02-23T16:24:01.322Z,30.30
2018-02-23T16:26:29.322Z,32.70
2018-02-23T16:28:57.397Z,24.70
2018-02-23T16:31:25.181Z,27.13
2018-02-23T16:33:52.952Z,36.23
2018-02-23T16:36:20.689Z,35.60
2018-02-23T16:38:48.543Z,26.57
2018-02-23T16:41:16.492Z,28.17
2018-02-23T16:43:44.209Z,30.77
2018-02-23T16:46:12.054Z,33.50
2018-02-23T16:48:39.886Z,31.90
2018-02-23T16:51:07.595Z,29.50
2018-02-23T16:53:35.357Z,32.27
2018-02-23T16:56:03.077Z,35.80
2018-02-23T16:58:30.852Z,34.20
2018-02-23T17:00:58.810Z,27.93
2018-02-23T17:03:26.889Z,41.93
2018-02-23T17:05:54.588Z,35.43
2018-02-23T17:08:22.386Z,36.60
2018-02-23T17:10:50.130Z,42.67
2018-02-23T17:13:17.940Z,43.57
2018-02-23T17:15:45.766Z,41.43
2018-02-23T17:18:13.581Z,39.60
2018-02-23T17:20:41.353Z,33.17
2018-02-23T17:23:09.345Z,40.77
2018-02-23T17:25:37.424Z,35.07
2018-02-23T17:28:05.164Z,41.43
2018-02-23T17:30:32.873Z,41.03
2018-02-23T17:33:00.845Z,43.03
2018-02-23T17:35:28.790Z,37.00
2018-02-23T17:37:56.656Z,49.17
2018-02-23T17:40:24.392Z,40.53
2018-02-23T17:42:52.164Z,49.53
2018-02-23T17:45:19.887Z,42.40
2018-02-23T17:47:47.619Z,37.83
2018-02-23T17:50:15.446Z,49.53
2018-02-23T17:52:43.168Z,46.63
2018-02-23T17:55:11.929Z,47.37
2018-02-23T17:57:39.796Z,50.27
2018-02-23T18:00:07.553Z,51.60
2018-02-23T18:02:35.337Z,47.03
2018-02-23T18:05:03.257Z,49.03
2018-02-23T18:07:31.889Z,51.77
2018-02-23T18:09:59.854Z,41.47
2018-02-23T18:12:27.614Z,43.60
2018-02-23T18:14:55.397Z,38.67
2018-02-23T18:17:23.197Z,58.53
2018-02-23T18:19:50.979Z,52.70
2018-02-23T18:22:18.738Z,51.07
2018-02-23T18:24:46.483Z,46.60
2018-02-23T18:27:14.273Z,48.87
2018-02-23T18:29:42.042Z,36.10
2018-02-23T18:32:09.821Z,35.93
2018-02-23T18:34:37.581Z,47.63
2018-02-23T18:37:05.596Z,41.63
2018-02-23T18:39:33.691Z,47.40
2018-02-23T18:42:01.643Z,74.40
2018-02-23T18:44:30.426Z,38.93
2018-02-23T18:46:58.988Z,48.43
2018-02-23T18:49:27.377Z,42.40
2018-02-23T18:51:55.250Z,52.43
2018-02-23T18:54:24.180Z,36.17
2018-02-23T18:56:54.530Z,28.67
2018-02-23T18:59:22.301Z,32.87
2018-02-23T19:01:50.056Z,42.00
2018-02-23T19:04:19.303Z,59.80
2018-02-23T19:06:47.109Z,33.17
2018-02-23T19:09:15.152Z,31.00
2018-02-23T19:11:42.939Z,33.63
2018-02-23T19:14:10.933Z,35.63
2018-02-23T19:16:38.912Z,34.83
2018-02-23T19:19:06.668Z,41.80
2018-02-23T19:21:34.509Z,39.70
2018-02-23T19:24:02.682Z,43.60
2018-02-23T19:26:30.500Z,47.13
2018-02-23T19:28:58.336Z,49.00
2018-02-23T19:31:26.593Z,55.20
2018-02-23T19:33:55.645Z,49.30
2018-02-23T19:36:23.758Z,52.30
2018-02-23T19:38:51.894Z,50.07
2018-02-23T19:41:22.132Z,50.87
2018-02-23T19:43:50.807Z,47.87
2018-02-23T19:46:22.846Z,49.13
2018-02-23T19:48:52.319Z,41.47
2018-02-23T19:51:20.331Z,62.63
2018-02-23T19:53:49.339Z,46.93
2018-02-23T19:56:18.166Z,39.13
2018-02-23T19:58:47.066Z,40.60
2018-02-23T20:01:14.922Z,37.40
2018-02-23T20:03:42.824Z,35.27
2018-02-23T20:06:13.752Z,36.90
2018-02-23T20:08:42.747Z,38.27
2018-02-23T20:11:11.515Z,45.40
2018-02-23T20:13:40.052Z,39.80
2018-02-23T20:16:10.960Z,40.37
2018-02-23T20:18:40.259Z,46.90
2018-02-23T20:21:08.981Z,44.30
2018-02-23T20:23:37.827Z,49.20
2018-02-23T20:26:05.718Z,47.50
2018-02-23T20:28:34.287Z,48.67
2018-02-23T20:31:04.281Z,43.73
2018-02-23T20:33:32.286Z,50.40
2018-02-23T20:36:00.252Z,44.23
2018-02-23T20:38:29.737Z,61.07
2018-02-23T20:40:57.816Z,57.57
2018-02-23T20:43:26.162Z,53.67
2018-02-23T20:45:54.224Z,48.90
2018-02-23T20:48:22.419Z,52.33
2018-02-23T20:50:50.810Z,49.10
2018-02-23T20:53:18.624Z,49.23
2018-02-23T20:55:46.391Z,51.20
2018-02-23T20:58:14.172Z,56.87
2018-02-23T21:00:41.929Z,50.50
2018-02-23T21:03:10.565Z,63.63
2018-02-23T21:05:38.323Z,47.70
2018-02-23T21:08:06.123Z,56.23
2018-02-23T21:10:33.893Z,52.40
2018-02-23T21:13:01.611Z,45.93
2018-02-23T21:15:29.414Z,51.87
2018-02-23T21:17:57.389Z,50.47
2018-02-23T21:20:25.783Z,56.63
2018-02-23T21:22:53.544Z,59.13
2018-02-23T21:25:21.330Z,73.47
2018-02-23T21:27:49.140Z,56.80
2018-02-23T21:30:16.829Z,55.47
2018-02-23T21:32:44.590Z,64.30
2018-02-23T21:35:13.000Z,60.17
2018-02-23T21:37:40.692Z,58.60
2018-02-23T21:40:08.639Z,58.77
2018-02-23T21:42:36.406Z,60.70
2018-02-23T21:45:04.244Z,68.70
2018-02-23T21:47:32.032Z,53.93
2018-02-23T21:50:01.098Z,60.43
2018-02-23T21:52:28.843Z,55.67
2018-02-23T21:54:56.604Z,62.23
2018-02-23T21:57:24.370Z,57.00
2018-02-23T21:59:52.103Z,50.10
2018-02-23T22:02:19.872Z,54.10
2018-02-23T22:04:47.678Z,52.30
2018-02-23T22:07:15.432Z,61.50
2018-02-23T22:09:43.162Z,49.50
2018-02-23T22:12:10.876Z,55.60
2018-02-23T22:14:39.440Z,56.10
2018-02-23T22:17:07.173Z,54.53
2018-02-23T22:19:34.844Z,67.27
2018-02-23T22:22:02.626Z,61.73
2018-02-23T22:24:31.548Z,51.40
2018-02-23T22:26:59.272Z,70.13
2018-02-23T22:29:27.148Z,61.13
2018-02-23T22:31:54.924Z,62.20
2018-02-23T22:34:23.326Z,53.43
2018-02-23T22:36:51.107Z,55.93
2018-02-23T22:39:18.936Z,63.30
2018-02-23T22:41:46.632Z,51.47
2018-02-23T22:44:14.668Z,56.33
2018-02-23T22:46:42.923Z,57.30
2018-02-23T22:49:10.698Z,61.17
2018-02-23T22:51:38.488Z,61.47
2018-02-23T22:54:06.192Z,51.87
2018-02-23T22:56:33.968Z,66.07
2018-02-23T22:59:01.674Z,64.07
2018-02-23T23:01:29.480Z,67.83
2018-02-23T23:03:57.182Z,74.03
2018-02-23T23:06:24.941Z,56.70
2018-02-23T23:08:52.695Z,57.70
2018-02-23T23:11:20.474Z,63.93
2018-02-23T23:13:48.251Z,49.37
2018-02-23T23:16:16.012Z,58.60
2018-02-23T23:18:43.728Z,67.03
2018-02-23T23:21:11.512Z,60.80
2018-02-23T23:23:39.263Z,65.90
2018-02-23T23:26:06.965Z,67.93
2018-02-23T23:28:36.712Z,62.83
2018-02-23T23:31:04.414Z,53.73
2018-02-23T23:33:32.211Z,67.63
2018-02-23T23:35:59.959Z,76.83
2018-02-23T23:38:27.723Z,54.70
2018-02-23T23:40:55.469Z,52.47
2018-02-23T23:43:23.317Z,53.67
2018-02-23T23:45:51.073Z,67.93
2018-02-23T23:48:18.770Z,62.00
2018-02-23T23:50:46.627Z,65.40
2018-02-23T23:53:14.356Z,57.03
2018-02-23T23:55:42.108Z,79.43
2018-02-23T23:58:09.835Z,49.93
